sensor_id;sensor_type;location;lat;lon;timestamp;temperature;humidity
12957;DHT22;6543;48.836;10.092;2023-06-19T00:01:41;22.90;82.80
12957;DHT22;6543;48.836;10.092;2023-06-19T00:04:09;22.70;83.80
12957;DHT22;6543;48.836;10.092;2023-06-19T00:06:36;22.60;84.70
12957;DHT22;6543;48.836;10.092;2023-06-19T00:09:03;22.40;85.30
12957;DHT22;6543;48.836;10.092;2023-06-19T00:11:30;22.40;86.00
12957;DHT22;6543;48.836;10.092;2023-06-19T00:13:57;22.30;86.10
12957;DHT22;6543;48.836;10.092;2023-06-19T00:16:25;22.40;86.40
12957;DHT22;6543;48.836;10.092;2023-06-19T00:18:52;22.30;86.50
12957;DHT22;6543;48.836;10.092;2023-06-19T00:21:21;22.30;86.50
12957;DHT22;6543;48.836;10.092;2023-06-19T00:23:49;22.20;87.90
12957;DHT22;6543;48.836;10.092;2023-06-19T00:26:15;22.10;89.00
12957;DHT22;6543;48.836;10.092;2023-06-19T00:28:42;22.10;88.80
12957;DHT22;6543;48.836;10.092;2023-06-19T00:31:10;22.00;89.10
12957;DHT22;6543;48.836;10.092;2023-06-19T00:33:40;22.00;89.10
12957;DHT22;6543;48.836;10.092;2023-06-19T00:36:09;22.00;89.50
12957;DHT22;6543;48.836;10.092;2023-06-19T00:38:36;21.90;89.80
12957;DHT22;6543;48.836;10.092;2023-06-19T00:41:03;21.80;90.10
12957;DHT22;6543;48.836;10.092;2023-06-19T00:43:30;22.00;90.10
12957;DHT22;6543;48.836;10.092;2023-06-19T00:45:57;22.00;89.90
12957;DHT22;6543;48.836;10.092;2023-06-19T00:48:26;22.20;87.90
12957;DHT22;6543;48.836;10.092;2023-06-19T00:50:56;22.30;87.50
12957;DHT22;6543;48.836;10.092;2023-06-19T00:53:23;22.30;87.50
12957;DHT22;6543;48.836;10.092;2023-06-19T00:55:51;22.30;87.60
12957;DHT22;6543;48.836;10.092;2023-06-19T00:58:19;22.40;86.40
12957;DHT22;6543;48.836;10.092;2023-06-19T01:00:46;22.40;86.30
12957;DHT22;6543;48.836;10.092;2023-06-19T01:03:14;22.20;87.90
12957;DHT22;6543;48.836;10.092;2023-06-19T01:05:41;22.20;88.50
12957;DHT22;6543;48.836;10.092;2023-06-19T01:08:12;22.10;89.50
12957;DHT22;6543;48.836;10.092;2023-06-19T01:10:45;22.00;89.40
12957;DHT22;6543;48.836;10.092;2023-06-19T01:13:19;21.90;90.00
12957;DHT22;6543;48.836;10.092;2023-06-19T01:15:48;21.90;90.10
12957;DHT22;6543;48.836;10.092;2023-06-19T01:18:15;21.80;90.50
12957;DHT22;6543;48.836;10.092;2023-06-19T01:20:43;21.70;90.60
12957;DHT22;6543;48.836;10.092;2023-06-19T01:23:12;21.70;90.90
12957;DHT22;6543;48.836;10.092;2023-06-19T01:25:39;21.80;91.00
12957;DHT22;6543;48.836;10.092;2023-06-19T01:28:09;21.80;90.70
12957;DHT22;6543;48.836;10.092;2023-06-19T01:30:39;21.70;90.90
12957;DHT22;6543;48.836;10.092;2023-06-19T01:33:11;21.70;91.00
12957;DHT22;6543;48.836;10.092;2023-06-19T01:35:42;21.70;90.70
12957;DHT22;6543;48.836;10.092;2023-06-19T01:38:11;21.70;91.50
12957;DHT22;6543;48.836;10.092;2023-06-19T01:40:40;21.70;90.70
12957;DHT22;6543;48.836;10.092;2023-06-19T01:43:08;21.80;90.50
12957;DHT22;6543;48.836;10.092;2023-06-19T01:45:35;21.60;91.40
12957;DHT22;6543;48.836;10.092;2023-06-19T01:48:02;21.80;91.00
12957;DHT22;6543;48.836;10.092;2023-06-19T01:50:29;21.90;90.90
12957;DHT22;6543;48.836;10.092;2023-06-19T01:52:56;21.80;91.10
12957;DHT22;6543;48.836;10.092;2023-06-19T01:55:24;21.70;91.50
12957;DHT22;6543;48.836;10.092;2023-06-19T01:57:51;21.60;91.60
12957;DHT22;6543;48.836;10.092;2023-06-19T02:00:18;21.50;91.90
12957;DHT22;6543;48.836;10.092;2023-06-19T02:02:45;21.40;92.40
12957;DHT22;6543;48.836;10.092;2023-06-19T02:05:12;21.40;93.00
12957;DHT22;6543;48.836;10.092;2023-06-19T02:07:39;21.30;93.10
12957;DHT22;6543;48.836;10.092;2023-06-19T02:10:07;21.30;93.00
12957;DHT22;6543;48.836;10.092;2023-06-19T02:12:35;21.20;93.40
12957;DHT22;6543;48.836;10.092;2023-06-19T02:15:03;21.20;94.30
12957;DHT22;6543;48.836;10.092;2023-06-19T02:17:30;21.20;94.50
12957;DHT22;6543;48.836;10.092;2023-06-19T02:19:56;21.10;94.80
12957;DHT22;6543;48.836;10.092;2023-06-19T02:22:23;21.00;95.20
12957;DHT22;6543;48.836;10.092;2023-06-19T02:24:50;20.90;95.30
12957;DHT22;6543;48.836;10.092;2023-06-19T02:27:17;20.80;95.40
12957;DHT22;6543;48.836;10.092;2023-06-19T02:29:45;20.70;95.90
12957;DHT22;6543;48.836;10.092;2023-06-19T02:32:12;20.60;96.20
12957;DHT22;6543;48.836;10.092;2023-06-19T02:34:38;20.50;96.70
12957;DHT22;6543;48.836;10.092;2023-06-19T02:37:05;20.40;97.00
12957;DHT22;6543;48.836;10.092;2023-06-19T02:39:33;20.40;97.50
12957;DHT22;6543;48.836;10.092;2023-06-19T02:42:00;20.30;97.90
12957;DHT22;6543;48.836;10.092;2023-06-19T02:44:27;20.20;98.30
12957;DHT22;6543;48.836;10.092;2023-06-19T02:46:55;20.20;98.30
12957;DHT22;6543;48.836;10.092;2023-06-19T02:49:22;20.10;98.40
12957;DHT22;6543;48.836;10.092;2023-06-19T02:51:48;20.20;98.40
12957;DHT22;6543;48.836;10.092;2023-06-19T02:54:15;20.10;98.30
12957;DHT22;6543;48.836;10.092;2023-06-19T02:56:42;20.30;98.00
12957;DHT22;6543;48.836;10.092;2023-06-19T02:59:09;20.40;97.80
12957;DHT22;6543;48.836;10.092;2023-06-19T03:01:36;20.60;97.80
12957;DHT22;6543;48.836;10.092;2023-06-19T03:04:04;20.60;98.40
12957;DHT22;6543;48.836;10.092;2023-06-19T03:06:31;20.60;98.30
12957;DHT22;6543;48.836;10.092;2023-06-19T03:08:58;20.50;98.50
12957;DHT22;6543;48.836;10.092;2023-06-19T03:11:25;20.20;98.90
12957;DHT22;6543;48.836;10.092;2023-06-19T03:13:53;20.00;99.60
12957;DHT22;6543;48.836;10.092;2023-06-19T03:16:21;20.00;99.90
12957;DHT22;6543;48.836;10.092;2023-06-19T03:18:48;20.00;99.90
12957;DHT22;6543;48.836;10.092;2023-06-19T03:21:16;20.00;99.90
12957;DHT22;6543;48.836;10.092;2023-06-19T03:23:44;20.00;99.90
12957;DHT22;6543;48.836;10.092;2023-06-19T03:26:11;20.00;99.90
12957;DHT22;6543;48.836;10.092;2023-06-19T03:28:39;20.00;99.90
12957;DHT22;6543;48.836;10.092;2023-06-19T03:31:06;20.00;99.90
12957;DHT22;6543;48.836;10.092;2023-06-19T03:33:33;20.00;99.90
12957;DHT22;6543;48.836;10.092;2023-06-19T03:36:00;20.20;99.90
12957;DHT22;6543;48.836;10.092;2023-06-19T03:38:28;20.20;99.90
12957;DHT22;6543;48.836;10.092;2023-06-19T03:40:55;20.30;99.90
12957;DHT22;6543;48.836;10.092;2023-06-19T03:43:22;20.40;99.90
12957;DHT22;6543;48.836;10.092;2023-06-19T03:45:48;20.40;99.90
12957;DHT22;6543;48.836;10.092;2023-06-19T03:48:15;20.50;99.90
12957;DHT22;6543;48.836;10.092;2023-06-19T03:50:42;20.40;99.80
12957;DHT22;6543;48.836;10.092;2023-06-19T03:53:09;20.50;99.90
12957;DHT22;6543;48.836;10.092;2023-06-19T03:55:37;20.60;99.90
12957;DHT22;6543;48.836;10.092;2023-06-19T03:58:04;20.60;99.90
12957;DHT22;6543;48.836;10.092;2023-06-19T04:00:31;20.60;99.90
12957;DHT22;6543;48.836;10.092;2023-06-19T04:02:58;20.70;99.90
12957;DHT22;6543;48.836;10.092;2023-06-19T04:05:25;20.70;99.90
12957;DHT22;6543;48.836;10.092;2023-06-19T04:07:52;20.80;99.90
12957;DHT22;6543;48.836;10.092;2023-06-19T04:10:18;20.90;99.90
12957;DHT22;6543;48.836;10.092;2023-06-19T04:12:47;21.00;99.90
12957;DHT22;6543;48.836;10.092;2023-06-19T04:15:13;21.00;99.90
12957;DHT22;6543;48.836;10.092;2023-06-19T04:17:40;21.00;99.90
12957;DHT22;6543;48.836;10.092;2023-06-19T04:20:08;21.10;99.90
12957;DHT22;6543;48.836;10.092;2023-06-19T04:22:37;21.10;99.90
12957;DHT22;6543;48.836;10.092;2023-06-19T04:25:05;21.10;99.90
12957;DHT22;6543;48.836;10.092;2023-06-19T04:27:32;21.30;99.90
12957;DHT22;6543;48.836;10.092;2023-06-19T04:30:02;21.30;99.90
12957;DHT22;6543;48.836;10.092;2023-06-19T04:32:29;21.30;99.90
12957;DHT22;6543;48.836;10.092;2023-06-19T04:34:56;21.20;99.90
12957;DHT22;6543;48.836;10.092;2023-06-19T04:37:24;21.10;99.90
12957;DHT22;6543;48.836;10.092;2023-06-19T04:39:51;21.00;99.90
12957;DHT22;6543;48.836;10.092;2023-06-19T04:42:18;21.10;99.90
12957;DHT22;6543;48.836;10.092;2023-06-19T04:44:46;21.10;99.90
12957;DHT22;6543;48.836;10.092;2023-06-19T04:47:17;21.10;99.90
12957;DHT22;6543;48.836;10.092;2023-06-19T04:49:44;21.00;99.90
12957;DHT22;6543;48.836;10.092;2023-06-19T04:52:11;21.10;99.90
12957;DHT22;6543;48.836;10.092;2023-06-19T04:54:39;21.10;99.90
12957;DHT22;6543;48.836;10.092;2023-06-19T04:57:07;21.10;99.90
12957;DHT22;6543;48.836;10.092;2023-06-19T04:59:34;21.20;99.90
12957;DHT22;6543;48.836;10.092;2023-06-19T05:02:02;21.30;99.90
12957;DHT22;6543;48.836;10.092;2023-06-19T05:04:30;21.50;99.90
12957;DHT22;6543;48.836;10.092;2023-06-19T05:06:58;21.60;99.90
12957;DHT22;6543;48.836;10.092;2023-06-19T05:09:25;21.70;99.90
12957;DHT22;6543;48.836;10.092;2023-06-19T05:11:52;21.90;99.90
12957;DHT22;6543;48.836;10.092;2023-06-19T05:14:18;21.90;99.90
12957;DHT22;6543;48.836;10.092;2023-06-19T05:16:45;22.00;99.90
12957;DHT22;6543;48.836;10.092;2023-06-19T05:19:12;22.10;99.90
12957;DHT22;6543;48.836;10.092;2023-06-19T05:21:40;22.20;99.90
12957;DHT22;6543;48.836;10.092;2023-06-19T05:24:07;22.00;99.90
12957;DHT22;6543;48.836;10.092;2023-06-19T05:26:34;22.00;99.90
12957;DHT22;6543;48.836;10.092;2023-06-19T05:29:00;22.00;99.90
12957;DHT22;6543;48.836;10.092;2023-06-19T05:31:27;21.90;99.90
12957;DHT22;6543;48.836;10.092;2023-06-19T05:33:54;21.90;99.90
12957;DHT22;6543;48.836;10.092;2023-06-19T05:36:21;21.80;99.90
12957;DHT22;6543;48.836;10.092;2023-06-19T05:38:49;22.00;99.90
12957;DHT22;6543;48.836;10.092;2023-06-19T05:41:16;21.80;99.90
12957;DHT22;6543;48.836;10.092;2023-06-19T05:43:43;21.90;99.90
12957;DHT22;6543;48.836;10.092;2023-06-19T05:46:11;22.20;99.90
12957;DHT22;6543;48.836;10.092;2023-06-19T05:48:38;22.10;99.90
12957;DHT22;6543;48.836;10.092;2023-06-19T05:51:05;22.20;99.90
12957;DHT22;6543;48.836;10.092;2023-06-19T05:53:32;22.00;99.90
12957;DHT22;6543;48.836;10.092;2023-06-19T05:56:00;22.10;99.90
12957;DHT22;6543;48.836;10.092;2023-06-19T05:58:26;22.30;99.90
12957;DHT22;6543;48.836;10.092;2023-06-19T06:00:53;22.30;99.90
12957;DHT22;6543;48.836;10.092;2023-06-19T06:03:23;22.30;99.90
12957;DHT22;6543;48.836;10.092;2023-06-19T06:05:49;22.20;99.90
12957;DHT22;6543;48.836;10.092;2023-06-19T06:08:16;22.00;99.90
12957;DHT22;6543;48.836;10.092;2023-06-19T06:10:43;22.00;99.90
12957;DHT22;6543;48.836;10.092;2023-06-19T06:13:11;22.20;99.90
12957;DHT22;6543;48.836;10.092;2023-06-19T06:15:39;22.30;99.90
12957;DHT22;6543;48.836;10.092;2023-06-19T06:18:06;22.40;99.90
12957;DHT22;6543;48.836;10.092;2023-06-19T06:20:32;22.40;99.90
12957;DHT22;6543;48.836;10.092;2023-06-19T06:22:59;22.60;99.90
12957;DHT22;6543;48.836;10.092;2023-06-19T06:25:26;22.60;99.90
12957;DHT22;6543;48.836;10.092;2023-06-19T06:27:53;22.80;99.90
12957;DHT22;6543;48.836;10.092;2023-06-19T06:30:21;22.90;99.90
12957;DHT22;6543;48.836;10.092;2023-06-19T06:32:48;22.90;99.90
12957;DHT22;6543;48.836;10.092;2023-06-19T06:35:15;23.00;99.90
12957;DHT22;6543;48.836;10.092;2023-06-19T06:37:42;23.00;99.90
12957;DHT22;6543;48.836;10.092;2023-06-19T06:40:10;23.00;99.90
12957;DHT22;6543;48.836;10.092;2023-06-19T06:42:37;22.90;99.90
12957;DHT22;6543;48.836;10.092;2023-06-19T06:45:06;22.90;99.90
12957;DHT22;6543;48.836;10.092;2023-06-19T06:47:34;23.20;99.90
12957;DHT22;6543;48.836;10.092;2023-06-19T06:50:01;23.20;99.90
12957;DHT22;6543;48.836;10.092;2023-06-19T06:52:28;23.30;99.90
12957;DHT22;6543;48.836;10.092;2023-06-19T06:54:56;23.30;99.90
12957;DHT22;6543;48.836;10.092;2023-06-19T06:57:22;23.30;99.90
12957;DHT22;6543;48.836;10.092;2023-06-19T06:59:49;23.40;99.90
12957;DHT22;6543;48.836;10.092;2023-06-19T07:02:16;23.40;99.90
12957;DHT22;6543;48.836;10.092;2023-06-19T07:04:44;23.30;99.90
12957;DHT22;6543;48.836;10.092;2023-06-19T07:07:11;23.60;99.90
12957;DHT22;6543;48.836;10.092;2023-06-19T07:09:38;23.90;99.90
12957;DHT22;6543;48.836;10.092;2023-06-19T07:12:05;24.50;99.90
12957;DHT22;6543;48.836;10.092;2023-06-19T07:14:32;24.60;99.90
12957;DHT22;6543;48.836;10.092;2023-06-19T07:16:59;24.40;99.90
12957;DHT22;6543;48.836;10.092;2023-06-19T07:19:26;24.60;99.90
12957;DHT22;6543;48.836;10.092;2023-06-19T07:21:54;24.30;99.90
12957;DHT22;6543;48.836;10.092;2023-06-19T07:24:21;24.50;99.90
12957;DHT22;6543;48.836;10.092;2023-06-19T07:26:49;24.10;99.90
12957;DHT22;6543;48.836;10.092;2023-06-19T07:29:16;24.60;99.90
12957;DHT22;6543;48.836;10.092;2023-06-19T07:31:42;25.00;99.90
12957;DHT22;6543;48.836;10.092;2023-06-19T07:34:09;25.10;99.90
12957;DHT22;6543;48.836;10.092;2023-06-19T07:36:36;25.40;99.90
12957;DHT22;6543;48.836;10.092;2023-06-19T07:39:04;25.50;99.90
12957;DHT22;6543;48.836;10.092;2023-06-19T07:41:31;25.10;99.90
12957;DHT22;6543;48.836;10.092;2023-06-19T07:43:58;25.30;99.90
12957;DHT22;6543;48.836;10.092;2023-06-19T07:46:25;25.10;99.90
12957;DHT22;6543;48.836;10.092;2023-06-19T07:48:51;25.20;99.90
12957;DHT22;6543;48.836;10.092;2023-06-19T07:51:20;25.20;99.90
12957;DHT22;6543;48.836;10.092;2023-06-19T07:53:46;25.00;99.90
12957;DHT22;6543;48.836;10.092;2023-06-19T07:56:17;25.00;99.80
12957;DHT22;6543;48.836;10.092;2023-06-19T07:58:46;25.20;99.30
12957;DHT22;6543;48.836;10.092;2023-06-19T08:01:13;25.30;99.00
12957;DHT22;6543;48.836;10.092;2023-06-19T08:03:41;24.90;99.90
12957;DHT22;6543;48.836;10.092;2023-06-19T08:06:08;24.90;99.90
12957;DHT22;6543;48.836;10.092;2023-06-19T08:08:35;25.60;99.70
12957;DHT22;6543;48.836;10.092;2023-06-19T08:11:02;25.90;99.20
12957;DHT22;6543;48.836;10.092;2023-06-19T08:13:30;26.20;98.00
12957;DHT22;6543;48.836;10.092;2023-06-19T08:15:58;26.10;98.40
12957;DHT22;6543;48.836;10.092;2023-06-19T08:18:24;26.10;98.40
12957;DHT22;6543;48.836;10.092;2023-06-19T08:20:51;26.30;98.20
12957;DHT22;6543;48.836;10.092;2023-06-19T08:23:18;26.30;97.70
12957;DHT22;6543;48.836;10.092;2023-06-19T08:25:45;26.30;97.90
12957;DHT22;6543;48.836;10.092;2023-06-19T08:28:12;25.80;98.50
12957;DHT22;6543;48.836;10.092;2023-06-19T08:30:40;26.00;98.40
12957;DHT22;6543;48.836;10.092;2023-06-19T08:33:07;26.10;98.30
12957;DHT22;6543;48.836;10.092;2023-06-19T08:35:34;26.40;98.10
12957;DHT22;6543;48.836;10.092;2023-06-19T08:38:01;26.20;98.00
12957;DHT22;6543;48.836;10.092;2023-06-19T08:40:27;26.20;97.80
12957;DHT22;6543;48.836;10.092;2023-06-19T08:42:54;26.30;97.10
12957;DHT22;6543;48.836;10.092;2023-06-19T08:45:21;26.20;97.30
12957;DHT22;6543;48.836;10.092;2023-06-19T08:47:50;26.30;97.00
12957;DHT22;6543;48.836;10.092;2023-06-19T08:50:24;26.20;97.40
12957;DHT22;6543;48.836;10.092;2023-06-19T08:52:51;26.30;97.10
12957;DHT22;6543;48.836;10.092;2023-06-19T08:55:18;26.30;97.50
12957;DHT22;6543;48.836;10.092;2023-06-19T08:57:45;26.30;97.00
12957;DHT22;6543;48.836;10.092;2023-06-19T09:00:23;26.10;97.50
12957;DHT22;6543;48.836;10.092;2023-06-19T09:02:57;26.30;97.70
12957;DHT22;6543;48.836;10.092;2023-06-19T09:05:24;26.80;97.00
12957;DHT22;6543;48.836;10.092;2023-06-19T09:07:56;26.70;96.80
12957;DHT22;6543;48.836;10.092;2023-06-19T09:10:23;26.70;95.70
12957;DHT22;6543;48.836;10.092;2023-06-19T09:12:57;26.50;96.30
12957;DHT22;6543;48.836;10.092;2023-06-19T09:15:27;26.70;95.10
12957;DHT22;6543;48.836;10.092;2023-06-19T09:18:07;27.10;94.60
12957;DHT22;6543;48.836;10.092;2023-06-19T09:20:36;27.00;94.50
12957;DHT22;6543;48.836;10.092;2023-06-19T09:23:05;27.00;94.40
12957;DHT22;6543;48.836;10.092;2023-06-19T09:25:31;27.00;94.50
12957;DHT22;6543;48.836;10.092;2023-06-19T09:27:59;27.40;93.80
12957;DHT22;6543;48.836;10.092;2023-06-19T09:30:26;27.40;93.80
12957;DHT22;6543;48.836;10.092;2023-06-19T09:32:53;26.90;95.20
12957;DHT22;6543;48.836;10.092;2023-06-19T09:35:21;26.70;95.80
12957;DHT22;6543;48.836;10.092;2023-06-19T09:37:49;26.80;95.60
12957;DHT22;6543;48.836;10.092;2023-06-19T09:40:17;27.30;95.30
12957;DHT22;6543;48.836;10.092;2023-06-19T09:42:44;27.20;95.10
12957;DHT22;6543;48.836;10.092;2023-06-19T09:45:13;26.60;96.30
12957;DHT22;6543;48.836;10.092;2023-06-19T09:47:43;27.10;95.90
12957;DHT22;6543;48.836;10.092;2023-06-19T09:50:12;26.70;96.10
12957;DHT22;6543;48.836;10.092;2023-06-19T09:52:41;26.20;96.50
12957;DHT22;6543;48.836;10.092;2023-06-19T09:55:10;26.40;96.60
12957;DHT22;6543;48.836;10.092;2023-06-19T09:57:39;26.00;96.50
12957;DHT22;6543;48.836;10.092;2023-06-19T10:00:11;25.90;96.20
12957;DHT22;6543;48.836;10.092;2023-06-19T10:02:41;26.10;95.90
12957;DHT22;6543;48.836;10.092;2023-06-19T10:05:09;26.70;94.90
12957;DHT22;6543;48.836;10.092;2023-06-19T10:07:41;26.80;93.70
12957;DHT22;6543;48.836;10.092;2023-06-19T10:10:10;26.90;92.40
12957;DHT22;6543;48.836;10.092;2023-06-19T10:12:42;27.40;92.60
12957;DHT22;6543;48.836;10.092;2023-06-19T10:15:12;27.10;92.90
12957;DHT22;6543;48.836;10.092;2023-06-19T10:17:43;27.00;93.10
12957;DHT22;6543;48.836;10.092;2023-06-19T10:20:23;26.60;93.80
12957;DHT22;6543;48.836;10.092;2023-06-19T10:22:56;27.00;93.70
12957;DHT22;6543;48.836;10.092;2023-06-19T10:25:23;27.30;93.40
12957;DHT22;6543;48.836;10.092;2023-06-19T10:27:50;27.40;92.40
12957;DHT22;6543;48.836;10.092;2023-06-19T10:30:18;27.80;92.60
12957;DHT22;6543;48.836;10.092;2023-06-19T10:32:47;27.90;91.90
12957;DHT22;6543;48.836;10.092;2023-06-19T10:35:14;27.60;92.10
12957;DHT22;6543;48.836;10.092;2023-06-19T10:37:47;27.70;92.10
12957;DHT22;6543;48.836;10.092;2023-06-19T10:40:16;27.60;92.70
12957;DHT22;6543;48.836;10.092;2023-06-19T10:42:43;27.30;92.90
12957;DHT22;6543;48.836;10.092;2023-06-19T10:45:12;27.60;94.20
12957;DHT22;6543;48.836;10.092;2023-06-19T10:47:41;27.70;93.80
12957;DHT22;6543;48.836;10.092;2023-06-19T10:50:12;27.80;93.80
12957;DHT22;6543;48.836;10.092;2023-06-19T10:52:42;27.60;94.30
12957;DHT22;6543;48.836;10.092;2023-06-19T10:55:16;28.20;93.70
12957;DHT22;6543;48.836;10.092;2023-06-19T10:57:45;28.50;92.50
12957;DHT22;6543;48.836;10.092;2023-06-19T11:00:23;28.80;92.10
12957;DHT22;6543;48.836;10.092;2023-06-19T11:02:55;28.60;92.40
12957;DHT22;6543;48.836;10.092;2023-06-19T11:05:25;28.20;91.70
12957;DHT22;6543;48.836;10.092;2023-06-19T11:07:59;28.40;91.70
12957;DHT22;6543;48.836;10.092;2023-06-19T11:10:29;28.10;91.90
12957;DHT22;6543;48.836;10.092;2023-06-19T11:12:58;28.40;92.10
12957;DHT22;6543;48.836;10.092;2023-06-19T11:15:29;28.50;92.30
12957;DHT22;6543;48.836;10.092;2023-06-19T11:17:56;28.30;92.30
12957;DHT22;6543;48.836;10.092;2023-06-19T11:20:23;27.80;92.80
12957;DHT22;6543;48.836;10.092;2023-06-19T11:22:55;27.80;92.60
12957;DHT22;6543;48.836;10.092;2023-06-19T11:25:23;28.50;91.70
12957;DHT22;6543;48.836;10.092;2023-06-19T11:27:53;29.30;90.90
12957;DHT22;6543;48.836;10.092;2023-06-19T11:30:35;29.30;90.10
12957;DHT22;6543;48.836;10.092;2023-06-19T11:33:17;29.20;90.40
12957;DHT22;6543;48.836;10.092;2023-06-19T11:35:48;29.00;90.80
12957;DHT22;6543;48.836;10.092;2023-06-19T11:38:17;29.10;90.60
12957;DHT22;6543;48.836;10.092;2023-06-19T11:40:45;29.30;90.30
12957;DHT22;6543;48.836;10.092;2023-06-19T11:43:23;29.40;90.40
12957;DHT22;6543;48.836;10.092;2023-06-19T11:45:53;29.90;89.50
12957;DHT22;6543;48.836;10.092;2023-06-19T11:48:24;30.00;87.90
12957;DHT22;6543;48.836;10.092;2023-06-19T11:50:51;29.30;88.20
12957;DHT22;6543;48.836;10.092;2023-06-19T11:53:19;29.40;87.70
12957;DHT22;6543;48.836;10.092;2023-06-19T11:55:47;29.00;88.00
12957;DHT22;6543;48.836;10.092;2023-06-19T11:58:16;29.50;86.30
12957;DHT22;6543;48.836;10.092;2023-06-19T12:00:45;29.50;86.10
12957;DHT22;6543;48.836;10.092;2023-06-19T12:03:12;29.90;84.60
12957;DHT22;6543;48.836;10.092;2023-06-19T12:05:39;30.20;84.00
12957;DHT22;6543;48.836;10.092;2023-06-19T12:08:06;29.90;84.00
12957;DHT22;6543;48.836;10.092;2023-06-19T12:10:34;30.00;83.60
12957;DHT22;6543;48.836;10.092;2023-06-19T12:13:01;29.90;83.70
12957;DHT22;6543;48.836;10.092;2023-06-19T12:15:29;29.60;84.50
12957;DHT22;6543;48.836;10.092;2023-06-19T12:17:55;29.70;84.20
12957;DHT22;6543;48.836;10.092;2023-06-19T12:20:23;29.60;84.10
12957;DHT22;6543;48.836;10.092;2023-06-19T12:22:50;30.20;83.00
12957;DHT22;6543;48.836;10.092;2023-06-19T12:25:17;30.40;82.60
12957;DHT22;6543;48.836;10.092;2023-06-19T12:27:44;30.20;83.30
12957;DHT22;6543;48.836;10.092;2023-06-19T12:30:11;30.50;81.80
12957;DHT22;6543;48.836;10.092;2023-06-19T12:32:40;29.70;82.90
12957;DHT22;6543;48.836;10.092;2023-06-19T12:35:07;30.30;82.60
12957;DHT22;6543;48.836;10.092;2023-06-19T12:37:34;30.10;82.20
12957;DHT22;6543;48.836;10.092;2023-06-19T12:40:02;30.00;81.80
12957;DHT22;6543;48.836;10.092;2023-06-19T12:42:43;29.90;81.70
12957;DHT22;6543;48.836;10.092;2023-06-19T12:45:10;30.20;81.00
12957;DHT22;6543;48.836;10.092;2023-06-19T12:47:37;29.90;81.10
12957;DHT22;6543;48.836;10.092;2023-06-19T12:50:06;30.50;80.30
12957;DHT22;6543;48.836;10.092;2023-06-19T12:52:33;30.50;79.40
12957;DHT22;6543;48.836;10.092;2023-06-19T12:55:00;30.10;80.00
12957;DHT22;6543;48.836;10.092;2023-06-19T12:57:27;30.10;79.30
12957;DHT22;6543;48.836;10.092;2023-06-19T12:59:54;30.30;77.90
12957;DHT22;6543;48.836;10.092;2023-06-19T13:02:21;30.30;78.10
12957;DHT22;6543;48.836;10.092;2023-06-19T13:04:49;30.20;78.10
12957;DHT22;6543;48.836;10.092;2023-06-19T13:07:18;30.30;78.30
12957;DHT22;6543;48.836;10.092;2023-06-19T13:09:52;30.70;77.70
12957;DHT22;6543;48.836;10.092;2023-06-19T13:12:21;31.00;77.20
12957;DHT22;6543;48.836;10.092;2023-06-19T13:14:48;29.90;78.00
12957;DHT22;6543;48.836;10.092;2023-06-19T13:17:15;30.20;78.30
12957;DHT22;6543;48.836;10.092;2023-06-19T13:19:42;30.50;77.40
12957;DHT22;6543;48.836;10.092;2023-06-19T13:22:08;31.10;76.30
12957;DHT22;6543;48.836;10.092;2023-06-19T13:24:37;31.30;81.80
12957;DHT22;6543;48.836;10.092;2023-06-19T13:27:04;31.20;83.50
12957;DHT22;6543;48.836;10.092;2023-06-19T13:29:31;31.30;82.60
12957;DHT22;6543;48.836;10.092;2023-06-19T13:31:58;31.20;83.10
12957;DHT22;6543;48.836;10.092;2023-06-19T13:34:25;31.50;82.60
12957;DHT22;6543;48.836;10.092;2023-06-19T13:36:52;31.30;82.30
12957;DHT22;6543;48.836;10.092;2023-06-19T13:39:20;31.60;82.00
12957;DHT22;6543;48.836;10.092;2023-06-19T13:41:51;31.90;81.90
12957;DHT22;6543;48.836;10.092;2023-06-19T13:44:20;32.00;80.90
12957;DHT22;6543;48.836;10.092;2023-06-19T13:46:47;31.90;80.30
12957;DHT22;6543;48.836;10.092;2023-06-19T13:49:14;31.60;80.40
12957;DHT22;6543;48.836;10.092;2023-06-19T13:51:41;31.70;79.10
12957;DHT22;6543;48.836;10.092;2023-06-19T13:54:09;31.90;77.40
12957;DHT22;6543;48.836;10.092;2023-06-19T13:56:38;32.10;76.60
12957;DHT22;6543;48.836;10.092;2023-06-19T13:59:07;32.10;76.40
12957;DHT22;6543;48.836;10.092;2023-06-19T14:01:34;32.50;75.70
12957;DHT22;6543;48.836;10.092;2023-06-19T14:04:01;32.10;76.10
12957;DHT22;6543;48.836;10.092;2023-06-19T14:06:28;32.10;77.10
12957;DHT22;6543;48.836;10.092;2023-06-19T14:08:55;31.80;77.50
12957;DHT22;6543;48.836;10.092;2023-06-19T14:11:23;31.70;77.40
12957;DHT22;6543;48.836;10.092;2023-06-19T14:13:49;31.70;76.40
12957;DHT22;6543;48.836;10.092;2023-06-19T14:16:18;31.60;77.00
12957;DHT22;6543;48.836;10.092;2023-06-19T14:18:44;31.60;76.70
12957;DHT22;6543;48.836;10.092;2023-06-19T14:21:11;31.50;75.90
12957;DHT22;6543;48.836;10.092;2023-06-19T14:23:38;32.00;75.30
12957;DHT22;6543;48.836;10.092;2023-06-19T14:26:08;32.20;75.00
12957;DHT22;6543;48.836;10.092;2023-06-19T14:28:37;31.20;76.00
12957;DHT22;6543;48.836;10.092;2023-06-19T14:31:05;31.70;75.40
12957;DHT22;6543;48.836;10.092;2023-06-19T14:33:34;32.20;74.80
12957;DHT22;6543;48.836;10.092;2023-06-19T14:36:02;32.20;75.00
12957;DHT22;6543;48.836;10.092;2023-06-19T14:38:29;33.10;74.00
12957;DHT22;6543;48.836;10.092;2023-06-19T14:40:59;33.60;72.80
12957;DHT22;6543;48.836;10.092;2023-06-19T14:43:26;34.30;71.50
12957;DHT22;6543;48.836;10.092;2023-06-19T14:45:53;34.50;70.10
12957;DHT22;6543;48.836;10.092;2023-06-19T14:48:20;34.70;69.30
12957;DHT22;6543;48.836;10.092;2023-06-19T14:50:49;34.50;68.10
12957;DHT22;6543;48.836;10.092;2023-06-19T14:53:16;33.90;69.70
12957;DHT22;6543;48.836;10.092;2023-06-19T14:55:43;34.00;69.70
12957;DHT22;6543;48.836;10.092;2023-06-19T14:58:12;34.90;68.90
12957;DHT22;6543;48.836;10.092;2023-06-19T15:00:39;34.50;69.00
12957;DHT22;6543;48.836;10.092;2023-06-19T15:03:05;35.40;68.00
12957;DHT22;6543;48.836;10.092;2023-06-19T15:05:33;36.10;67.10
12957;DHT22;6543;48.836;10.092;2023-06-19T15:08:01;36.20;67.60
12957;DHT22;6543;48.836;10.092;2023-06-19T15:10:29;36.40;66.00
12957;DHT22;6543;48.836;10.092;2023-06-19T15:12:57;36.60;65.20
12957;DHT22;6543;48.836;10.092;2023-06-19T15:15:24;35.90;65.80
12957;DHT22;6543;48.836;10.092;2023-06-19T15:17:51;36.10;65.90
12957;DHT22;6543;48.836;10.092;2023-06-19T15:20:18;36.50;65.00
12957;DHT22;6543;48.836;10.092;2023-06-19T15:22:46;36.50;64.50
12957;DHT22;6543;48.836;10.092;2023-06-19T15:25:16;35.10;64.30
12957;DHT22;6543;48.836;10.092;2023-06-19T15:27:43;35.00;64.30
12957;DHT22;6543;48.836;10.092;2023-06-19T15:30:10;35.30;64.40
12957;DHT22;6543;48.836;10.092;2023-06-19T15:32:39;35.00;63.70
12957;DHT22;6543;48.836;10.092;2023-06-19T15:35:06;35.10;63.90